sensor_id;sensor_type;location;lat;lon;timestamp;P1;durP1;ratioP1;P2;durP2;ratioP2
29764;SDS011;16667;-33.884;151.182;2022-07-11T00:01:43;8.98;;;3.45;;
29764;SDS011;16667;-33.884;151.182;2022-07-11T00:04:14;11.15;;;3.72;;
29764;SDS011;16667;-33.884;151.182;2022-07-11T00:06:45;12.80;;;4.35;;
29764;SDS011;16667;-33.884;151.182;2022-07-11T00:09:16;12.05;;;3.95;;
29764;SDS011;16667;-33.884;151.182;2022-07-11T00:11:46;12.82;;;4.35;;
29764;SDS011;16667;-33.884;151.182;2022-07-11T00:14:17;12.57;;;3.83;;
29764;SDS011;16667;-33.884;151.182;2022-07-11T00:16:56;8.75;;;2.97;;
29764;SDS011;16667;-33.884;151.182;2022-07-11T00:19:26;10.75;;;3.22;;
29764;SDS011;16667;-33.884;151.182;2022-07-11T00:22:00;9.65;;;3.30;;
29764;SDS011;16667;-33.884;151.182;2022-07-11T00:24:31;10.30;;;3.00;;
29764;SDS011;16667;-33.884;151.182;2022-07-11T00:27:02;12.02;;;2.85;;
29764;SDS011;16667;-33.884;151.182;2022-07-11T00:29:33;11.95;;;3.08;;
29764;SDS011;16667;-33.884;151.182;2022-07-11T00:32:07;9.13;;;2.97;;
29764;SDS011;16667;-33.884;151.182;2022-07-11T00:34:37;8.93;;;2.63;;
29764;SDS011;16667;-33.884;151.182;2022-07-11T00:37:08;8.65;;;2.50;;
29764;SDS011;16667;-33.884;151.182;2022-07-11T00:39:39;7.22;;;2.47;;
29764;SDS011;16667;-33.884;151.182;2022-07-11T00:42:10;10.05;;;2.75;;
29764;SDS011;16667;-33.884;151.182;2022-07-11T00:44:44;7.38;;;2.40;;
29764;SDS011;16667;-33.884;151.182;2022-07-11T00:47:20;12.05;;;2.53;;
29764;SDS011;16667;-33.884;151.182;2022-07-11T00:49:54;10.32;;;2.03;;
29764;SDS011;16667;-33.884;151.182;2022-07-11T00:52:25;10.07;;;2.20;;
29764;SDS011;16667;-33.884;151.182;2022-07-11T00:54:57;6.65;;;1.55;;
29764;SDS011;16667;-33.884;151.182;2022-07-11T00:57:28;5.80;;;1.73;;
29764;SDS011;16667;-33.884;151.182;2022-07-11T00:59:59;7.55;;;1.73;;
29764;SDS011;16667;-33.884;151.182;2022-07-11T01:02:32;4.50;;;1.50;;
29764;SDS011;16667;-33.884;151.182;2022-07-11T01:05:03;7.38;;;1.75;;
29764;SDS011;16667;-33.884;151.182;2022-07-11T01:07:34;6.50;;;1.70;;
29764;SDS011;16667;-33.884;151.182;2022-07-11T01:10:07;6.03;;;1.50;;
29764;SDS011;16667;-33.884;151.182;2022-07-11T01:12:38;8.68;;;1.92;;
29764;SDS011;16667;-33.884;151.182;2022-07-11T01:15:09;6.38;;;1.65;;
29764;SDS011;16667;-33.884;151.182;2022-07-11T01:17:44;6.18;;;1.77;;
29764;SDS011;16667;-33.884;151.182;2022-07-11T01:20:15;5.32;;;1.58;;
29764;SDS011;16667;-33.884;151.182;2022-07-11T01:22:46;6.00;;;1.73;;
29764;SDS011;16667;-33.884;151.182;2022-07-11T01:25:24;7.72;;;1.83;;
29764;SDS011;16667;-33.884;151.182;2022-07-11T01:28:01;8.03;;;2.60;;
29764;SDS011;16667;-33.884;151.182;2022-07-11T01:30:33;10.88;;;2.20;;
29764;SDS011;16667;-33.884;151.182;2022-07-11T01:33:03;9.57;;;2.17;;
29764;SDS011;16667;-33.884;151.182;2022-07-11T01:35:34;8.48;;;2.10;;
29764;SDS011;16667;-33.884;151.182;2022-07-11T01:38:05;10.45;;;2.10;;
29764;SDS011;16667;-33.884;151.182;2022-07-11T01:40:37;8.97;;;1.77;;
29764;SDS011;16667;-33.884;151.182;2022-07-11T01:43:08;6.43;;;1.35;;
29764;SDS011;16667;-33.884;151.182;2022-07-11T01:45:39;7.25;;;1.92;;
29764;SDS011;16667;-33.884;151.182;2022-07-11T01:48:12;8.65;;;1.90;;
29764;SDS011;16667;-33.884;151.182;2022-07-11T01:50:43;11.85;;;2.03;;
29764;SDS011;16667;-33.884;151.182;2022-07-11T01:53:13;11.32;;;1.70;;
29764;SDS011;16667;-33.884;151.182;2022-07-11T01:55:46;13.83;;;2.10;;
29764;SDS011;16667;-33.884;151.182;2022-07-11T01:58:17;9.27;;;1.30;;
29764;SDS011;16667;-33.884;151.182;2022-07-11T02:00:50;4.80;;;1.52;;
29764;SDS011;16667;-33.884;151.182;2022-07-11T02:03:21;8.88;;;1.85;;
29764;SDS011;16667;-33.884;151.182;2022-07-11T02:05:52;13.55;;;2.13;;
29764;SDS011;16667;-33.884;151.182;2022-07-11T02:08:24;7.20;;;1.58;;
29764;SDS011;16667;-33.884;151.182;2022-07-11T02:10:57;6.60;;;1.42;;
29764;SDS011;16667;-33.884;151.182;2022-07-11T02:13:28;12.27;;;1.90;;
29764;SDS011;16667;-33.884;151.182;2022-07-11T02:15:59;7.30;;;2.00;;
29764;SDS011;16667;-33.884;151.182;2022-07-11T02:18:30;8.15;;;1.90;;
29764;SDS011;16667;-33.884;151.182;2022-07-11T02:21:00;7.53;;;1.80;;
29764;SDS011;16667;-33.884;151.182;2022-07-11T02:23:34;8.82;;;1.70;;
29764;SDS011;16667;-33.884;151.182;2022-07-11T02:26:07;7.18;;;1.50;;
29764;SDS011;16667;-33.884;151.182;2022-07-11T02:28:37;6.83;;;1.50;;
29764;SDS011;16667;-33.884;151.182;2022-07-11T02:31:08;11.93;;;5.10;;
29764;SDS011;16667;-33.884;151.182;2022-07-11T02:33:39;11.98;;;3.45;;
29764;SDS011;16667;-33.884;151.182;2022-07-11T02:36:10;9.35;;;2.17;;
29764;SDS011;16667;-33.884;151.182;2022-07-11T02:38:41;13.80;;;2.27;;
29764;SDS011;16667;-33.884;151.182;2022-07-11T02:41:13;10.13;;;2.05;;
29764;SDS011;16667;-33.884;151.182;2022-07-11T02:43:44;12.30;;;2.47;;
29764;SDS011;16667;-33.884;151.182;2022-07-11T02:46:15;16.77;;;2.30;;
29764;SDS011;16667;-33.884;151.182;2022-07-11T02:48:46;13.00;;;2.60;;
29764;SDS011;16667;-33.884;151.182;2022-07-11T02:51:20;14.88;;;1.92;;
29764;SDS011;16667;-33.884;151.182;2022-07-11T02:53:50;13.43;;;2.58;;
29764;SDS011;16667;-33.884;151.182;2022-07-11T02:56:23;16.02;;;2.20;;
29764;SDS011;16667;-33.884;151.182;2022-07-11T02:58:54;13.15;;;2.30;;
29764;SDS011;16667;-33.884;151.182;2022-07-11T03:01:24;14.18;;;2.55;;
29764;SDS011;16667;-33.884;151.182;2022-07-11T03:03:55;13.27;;;2.88;;
29764;SDS011;16667;-33.884;151.182;2022-07-11T03:06:26;11.85;;;1.92;;
29764;SDS011;16667;-33.884;151.182;2022-07-11T03:08:57;10.45;;;2.05;;
29764;SDS011;16667;-33.884;151.182;2022-07-11T03:11:29;14.75;;;2.60;;
29764;SDS011;16667;-33.884;151.182;2022-07-11T03:14:00;14.32;;;2.00;;
29764;SDS011;16667;-33.884;151.182;2022-07-11T03:16:31;10.65;;;2.20;;
29764;SDS011;16667;-33.884;151.182;2022-07-11T03:19:01;13.13;;;2.60;;
29764;SDS011;16667;-33.884;151.182;2022-07-11T03:21:32;9.65;;;2.20;;
29764;SDS011;16667;-33.884;151.182;2022-07-11T03:24:03;16.73;;;2.22;;
29764;SDS011;16667;-33.884;151.182;2022-07-11T03:26:36;12.55;;;1.83;;
29764;SDS011;16667;-33.884;151.182;2022-07-11T03:29:07;12.73;;;1.87;;
29764;SDS011;16667;-33.884;151.182;2022-07-11T03:31:39;6.90;;;1.70;;
29764;SDS011;16667;-33.884;151.182;2022-07-11T03:34:10;8.77;;;1.60;;
29764;SDS011;16667;-33.884;151.182;2022-07-11T03:36:44;11.98;;;1.85;;
29764;SDS011;16667;-33.884;151.182;2022-07-11T03:39:15;7.15;;;1.73;;
29764;SDS011;16667;-33.884;151.182;2022-07-11T03:41:49;9.07;;;1.77;;
29764;SDS011;16667;-33.884;151.182;2022-07-11T03:44:22;11.70;;;1.88;;
29764;SDS011;16667;-33.884;151.182;2022-07-11T03:46:53;13.35;;;1.63;;
29764;SDS011;16667;-33.884;151.182;2022-07-11T03:49:26;9.50;;;1.98;;
29764;SDS011;16667;-33.884;151.182;2022-07-11T03:51:57;10.07;;;1.80;;
29764;SDS011;16667;-33.884;151.182;2022-07-11T03:54:27;9.25;;;1.40;;
29764;SDS011;16667;-33.884;151.182;2022-07-11T03:57:03;8.23;;;1.60;;
29764;SDS011;16667;-33.884;151.182;2022-07-11T03:59:37;9.60;;;2.00;;
29764;SDS011;16667;-33.884;151.182;2022-07-11T04:02:07;13.57;;;2.65;;
29764;SDS011;16667;-33.884;151.182;2022-07-11T04:04:43;12.50;;;2.40;;
29764;SDS011;16667;-33.884;151.182;2022-07-11T04:07:14;10.20;;;1.95;;
29764;SDS011;16667;-33.884;151.182;2022-07-11T04:09:46;11.77;;;2.38;;
29764;SDS011;16667;-33.884;151.182;2022-07-11T04:12:19;11.90;;;2.10;;
29764;SDS011;16667;-33.884;151.182;2022-07-11T04:14:52;8.20;;;1.65;;
29764;SDS011;16667;-33.884;151.182;2022-07-11T04:17:25;8.13;;;1.33;;
29764;SDS011;16667;-33.884;151.182;2022-07-11T04:19:56;6.50;;;1.30;;
29764;SDS011;16667;-33.884;151.182;2022-07-11T04:22:27;7.20;;;1.30;;
29764;SDS011;16667;-33.884;151.182;2022-07-11T04:24:58;4.68;;;1.05;;
29764;SDS011;16667;-33.884;151.182;2022-07-11T04:27:30;6.72;;;1.20;;
29764;SDS011;16667;-33.884;151.182;2022-07-11T04:30:01;5.97;;;1.20;;
29764;SDS011;16667;-33.884;151.182;2022-07-11T04:32:32;11.25;;;1.50;;
29764;SDS011;16667;-33.884;151.182;2022-07-11T04:35:06;7.65;;;1.00;;
29764;SDS011;16667;-33.884;151.182;2022-07-11T04:37:37;7.60;;;1.50;;
29764;SDS011;16667;-33.884;151.182;2022-07-11T04:40:08;10.80;;;1.30;;
29764;SDS011;16667;-33.884;151.182;2022-07-11T04:42:41;9.88;;;2.55;;
29764;SDS011;16667;-33.884;151.182;2022-07-11T04:45:14;5.78;;;0.75;;
29764;SDS011;16667;-33.884;151.182;2022-07-11T04:47:45;4.22;;;1.10;;
29764;SDS011;16667;-33.884;151.182;2022-07-11T04:50:16;7.10;;;1.15;;
29764;SDS011;16667;-33.884;151.182;2022-07-11T04:52:47;7.95;;;1.50;;
29764;SDS011;16667;-33.884;151.182;2022-07-11T04:55:17;6.15;;;1.40;;
29764;SDS011;16667;-33.884;151.182;2022-07-11T04:57:55;4.95;;;1.15;;
29764;SDS011;16667;-33.884;151.182;2022-07-11T05:00:26;8.85;;;1.00;;
29764;SDS011;16667;-33.884;151.182;2022-07-11T05:02:57;9.77;;;1.40;;
29764;SDS011;16667;-33.884;151.182;2022-07-11T05:05:30;6.72;;;1.45;;
29764;SDS011;16667;-33.884;151.182;2022-07-11T05:08:01;7.80;;;1.30;;
29764;SDS011;16667;-33.884;151.182;2022-07-11T05:10:35;3.58;;;1.00;;
29764;SDS011;16667;-33.884;151.182;2022-07-11T05:13:08;8.23;;;1.40;;
29764;SDS011;16667;-33.884;151.182;2022-07-11T05:15:38;6.18;;;1.38;;
29764;SDS011;16667;-33.884;151.182;2022-07-11T05:18:10;8.15;;;1.30;;
29764;SDS011;16667;-33.884;151.182;2022-07-11T05:20:41;5.22;;;1.13;;
29764;SDS011;16667;-33.884;151.182;2022-07-11T05:23:14;8.10;;;1.52;;
29764;SDS011;16667;-33.884;151.182;2022-07-11T05:25:45;4.90;;;1.40;;
29764;SDS011;16667;-33.884;151.182;2022-07-11T05:28:20;5.45;;;1.42;;
29764;SDS011;16667;-33.884;151.182;2022-07-11T05:30:51;9.27;;;1.40;;
29764;SDS011;16667;-33.884;151.182;2022-07-11T05:33:22;5.80;;;1.25;;
29764;SDS011;16667;-33.884;151.182;2022-07-11T05:35:53;5.47;;;1.27;;
29764;SDS011;16667;-33.884;151.182;2022-07-11T05:38:23;5.82;;;1.35;;
29764;SDS011;16667;-33.884;151.182;2022-07-11T05:40:54;7.28;;;1.58;;
29764;SDS011;16667;-33.884;151.182;2022-07-11T05:43:27;6.15;;;1.45;;
29764;SDS011;16667;-33.884;151.182;2022-07-11T05:45:59;11.57;;;1.75;;
29764;SDS011;16667;-33.884;151.182;2022-07-11T05:48:33;7.88;;;1.70;;
29764;SDS011;16667;-33.884;151.182;2022-07-11T05:51:04;11.07;;;1.95;;
29764;SDS011;16667;-33.884;151.182;2022-07-11T05:53:37;5.18;;;1.35;;
29764;SDS011;16667;-33.884;151.182;2022-07-11T05:56:08;6.90;;;1.60;;
29764;SDS011;16667;-33.884;151.182;2022-07-11T05:58:43;11.63;;;2.10;;
29764;SDS011;16667;-33.884;151.182;2022-07-11T06:01:14;5.20;;;1.30;;
29764;SDS011;16667;-33.884;151.182;2022-07-11T06:03:45;5.78;;;1.73;;
29764;SDS011;16667;-33.884;151.182;2022-07-11T06:06:16;6.53;;;1.50;;
29764;SDS011;16667;-33.884;151.182;2022-07-11T06:08:47;7.07;;;1.50;;
29764;SDS011;16667;-33.884;151.182;2022-07-11T06:11:17;10.45;;;1.60;;
29764;SDS011;16667;-33.884;151.182;2022-07-11T06:13:50;7.97;;;1.40;;
29764;SDS011;16667;-33.884;151.182;2022-07-11T06:16:24;11.07;;;2.13;;
29764;SDS011;16667;-33.884;151.182;2022-07-11T06:18:55;12.43;;;2.40;;
29764;SDS011;16667;-33.884;151.182;2022-07-11T06:21:26;11.75;;;2.30;;
29764;SDS011;16667;-33.884;151.182;2022-07-11T06:23:57;7.30;;;2.00;;
29764;SDS011;16667;-33.884;151.182;2022-07-11T06:26:28;13.82;;;2.25;;
29764;SDS011;16667;-33.884;151.182;2022-07-11T06:29:01;10.50;;;2.47;;
29764;SDS011;16667;-33.884;151.182;2022-07-11T06:31:34;7.75;;;2.00;;
29764;SDS011;16667;-33.884;151.182;2022-07-11T06:34:05;10.45;;;2.78;;
29764;SDS011;16667;-33.884;151.182;2022-07-11T06:36:36;7.30;;;2.47;;
29764;SDS011;16667;-33.884;151.182;2022-07-11T06:39:07;9.48;;;2.35;;
29764;SDS011;16667;-33.884;151.182;2022-07-11T06:41:37;9.85;;;2.67;;
29764;SDS011;16667;-33.884;151.182;2022-07-11T06:44:10;10.02;;;2.63;;
29764;SDS011;16667;-33.884;151.182;2022-07-11T06:46:41;15.57;;;2.85;;
29764;SDS011;16667;-33.884;151.182;2022-07-11T06:49:14;11.48;;;2.80;;
29764;SDS011;16667;-33.884;151.182;2022-07-11T06:51:45;10.43;;;2.63;;
29764;SDS011;16667;-33.884;151.182;2022-07-11T06:54:19;12.20;;;2.63;;
29764;SDS011;16667;-33.884;151.182;2022-07-11T06:56:49;15.70;;;3.05;;
29764;SDS011;16667;-33.884;151.182;2022-07-11T06:59:22;13.98;;;3.13;;
29764;SDS011;16667;-33.884;151.182;2022-07-11T07:01:53;15.93;;;3.90;;
29764;SDS011;16667;-33.884;151.182;2022-07-11T07:04:24;13.43;;;3.55;;
29764;SDS011;16667;-33.884;151.182;2022-07-11T07:06:54;11.82;;;3.20;;
29764;SDS011;16667;-33.884;151.182;2022-07-11T07:09:28;14.30;;;3.40;;
29764;SDS011;16667;-33.884;151.182;2022-07-11T07:11:58;15.05;;;3.33;;
29764;SDS011;16667;-33.884;151.182;2022-07-11T07:14:34;11.68;;;3.30;;
29764;SDS011;16667;-33.884;151.182;2022-07-11T07:17:04;13.97;;;3.20;;
29764;SDS011;16667;-33.884;151.182;2022-07-11T07:19:35;14.50;;;3.47;;
29764;SDS011;16667;-33.884;151.182;2022-07-11T07:22:06;16.48;;;3.20;;
29764;SDS011;16667;-33.884;151.182;2022-07-11T07:24:44;19.02;;;4.00;;
29764;SDS011;16667;-33.884;151.182;2022-07-11T07:27:15;16.90;;;4.32;;
29764;SDS011;16667;-33.884;151.182;2022-07-11T07:29:48;16.38;;;4.13;;
29764;SDS011;16667;-33.884;151.182;2022-07-11T07:32:19;15.73;;;4.90;;
29764;SDS011;16667;-33.884;151.182;2022-07-11T07:34:52;17.45;;;4.60;;
29764;SDS011;16667;-33.884;151.182;2022-07-11T07:37:25;17.40;;;4.50;;
29764;SDS011;16667;-33.884;151.182;2022-07-11T07:39:59;16.67;;;4.90;;
29764;SDS011;16667;-33.884;151.182;2022-07-11T07:42:31;15.32;;;4.90;;
29764;SDS011;16667;-33.884;151.182;2022-07-11T07:45:07;14.40;;;4.68;;
29764;SDS011;16667;-33.884;151.182;2022-07-11T07:47:41;19.70;;;4.85;;
29764;SDS011;16667;-33.884;151.182;2022-07-11T07:50:12;14.90;;;5.10;;
29764;SDS011;16667;-33.884;151.182;2022-07-11T07:52:43;15.10;;;5.50;;
29764;SDS011;16667;-33.884;151.182;2022-07-11T07:55:14;15.52;;;5.50;;
29764;SDS011;16667;-33.884;151.182;2022-07-11T07:57:44;14.43;;;4.82;;
29764;SDS011;16667;-33.884;151.182;2022-07-11T08:00:17;15.32;;;5.60;;
29764;SDS011;16667;-33.884;151.182;2022-07-11T08:03:06;19.52;;;5.60;;
29764;SDS011;16667;-33.884;151.182;2022-07-11T08:05:37;13.52;;;5.50;;
29764;SDS011;16667;-33.884;151.182;2022-07-11T08:08:11;13.80;;;5.85;;
29764;SDS011;16667;-33.884;151.182;2022-07-11T08:10:42;19.25;;;5.85;;
29764;SDS011;16667;-33.884;151.182;2022-07-11T08:13:16;21.63;;;5.97;;
29764;SDS011;16667;-33.884;151.182;2022-07-11T08:15:49;20.95;;;6.00;;
29764;SDS011;16667;-33.884;151.182;2022-07-11T08:18:20;17.90;;;6.40;;
29764;SDS011;16667;-33.884;151.182;2022-07-11T08:20:53;16.05;;;5.97;;
29764;SDS011;16667;-33.884;151.182;2022-07-11T08:23:24;18.00;;;6.72;;
29764;SDS011;16667;-33.884;151.182;2022-07-11T08:25:55;20.13;;;7.07;;
29764;SDS011;16667;-33.884;151.182;2022-07-11T08:28:26;17.90;;;7.18;;
29764;SDS011;16667;-33.884;151.182;2022-07-11T08:30:58;27.30;;;7.15;;
29764;SDS011;16667;-33.884;151.182;2022-07-11T08:33:29;17.77;;;7.43;;
29764;SDS011;16667;-33.884;151.182;2022-07-11T08:36:00;21.27;;;7.65;;
29764;SDS011;16667;-33.884;151.182;2022-07-11T08:38:34;19.63;;;7.50;;
29764;SDS011;16667;-33.884;151.182;2022-07-11T08:41:05;27.02;;;8.00;;
29764;SDS011;16667;-33.884;151.182;2022-07-11T08:43:38;24.95;;;8.82;;
29764;SDS011;16667;-33.884;151.182;2022-07-11T08:46:12;19.70;;;7.80;;
29764;SDS011;16667;-33.884;151.182;2022-07-11T08:48:44;19.85;;;7.78;;
29764;SDS011;16667;-33.884;151.182;2022-07-11T08:51:16;16.60;;;7.50;;
29764;SDS011;16667;-33.884;151.182;2022-07-11T08:53:50;21.17;;;7.95;;
29764;SDS011;16667;-33.884;151.182;2022-07-11T08:56:23;21.95;;;8.10;;
29764;SDS011;16667;-33.884;151.182;2022-07-11T08:58:56;23.90;;;8.90;;
29764;SDS011;16667;-33.884;151.182;2022-07-11T09:01:30;23.33;;;9.38;;
29764;SDS011;16667;-33.884;151.182;2022-07-11T09:04:03;20.35;;;8.80;;
29764;SDS011;16667;-33.884;151.182;2022-07-11T09:06:40;23.15;;;8.38;;
29764;SDS011;16667;-33.884;151.182;2022-07-11T09:09:10;26.75;;;9.20;;
29764;SDS011;16667;-33.884;151.182;2022-07-11T09:11:51;23.05;;;8.63;;
29764;SDS011;16667;-33.884;151.182;2022-07-11T09:14:23;23.40;;;8.85;;
29764;SDS011;16667;-33.884;151.182;2022-07-11T09:16:57;23.42;;;8.68;;
29764;SDS011;16667;-33.884;151.182;2022-07-11T09:19:29;24.45;;;9.35;;
29764;SDS011;16667;-33.884;151.182;2022-07-11T09:22:03;20.38;;;8.18;;
29764;SDS011;16667;-33.884;151.182;2022-07-11T09:24:57;21.63;;;8.50;;
29764;SDS011;16667;-33.884;151.182;2022-07-11T09:27:44;25.80;;;9.15;;
29764;SDS011;16667;-33.884;151.182;2022-07-11T09:30:17;29.37;;;8.90;;
29764;SDS011;16667;-33.884;151.182;2022-07-11T09:32:59;21.23;;;8.50;;
29764;SDS011;16667;-33.884;151.182;2022-07-11T09:35:33;24.67;;;9.30;;
29764;SDS011;16667;-33.884;151.182;2022-07-11T09:38:06;22.20;;;10.27;;
29764;SDS011;16667;-33.884;151.182;2022-07-11T09:40:38;24.67;;;10.32;;
29764;SDS011;16667;-33.884;151.182;2022-07-11T09:43:12;22.45;;;9.50;;
29764;SDS011;16667;-33.884;151.182;2022-07-11T09:45:43;23.48;;;10.55;;
29764;SDS011;16667;-33.884;151.182;2022-07-11T09:48:15;24.88;;;11.10;;
29764;SDS011;16667;-33.884;151.182;2022-07-11T09:50:57;27.38;;;10.57;;
29764;SDS011;16667;-33.884;151.182;2022-07-11T09:53:30;27.83;;;9.90;;
29764;SDS011;16667;-33.884;151.182;2022-07-11T09:56:01;25.85;;;10.70;;
29764;SDS011;16667;-33.884;151.182;2022-07-11T09:58:34;26.05;;;10.10;;
29764;SDS011;16667;-33.884;151.182;2022-07-11T10:01:05;23.98;;;9.70;;
29764;SDS011;16667;-33.884;151.182;2022-07-11T10:03:38;22.00;;;9.02;;
29764;SDS011;16667;-33.884;151.182;2022-07-11T10:06:09;20.15;;;8.73;;
29764;SDS011;16667;-33.884;151.182;2022-07-11T10:08:40;22.27;;;8.88;;
29764;SDS011;16667;-33.884;151.182;2022-07-11T10:11:13;30.00;;;9.27;;
29764;SDS011;16667;-33.884;151.182;2022-07-11T10:13:47;21.85;;;8.57;;
29764;SDS011;16667;-33.884;151.182;2022-07-11T10:16:22;21.55;;;8.65;;
29764;SDS011;16667;-33.884;151.182;2022-07-11T10:19:02;27.77;;;11.15;;
29764;SDS011;16667;-33.884;151.182;2022-07-11T10:21:41;24.17;;;10.40;;
29764;SDS011;16667;-33.884;151.182;2022-07-11T10:24:28;25.80;;;10.73;;
29764;SDS011;16667;-33.884;151.182;2022-07-11T10:27:06;27.30;;;11.18;;
29764;SDS011;16667;-33.884;151.182;2022-07-11T10:29:45;24.17;;;11.00;;
29764;SDS011;16667;-33.884;151.182;2022-07-11T10:32:19;22.30;;;10.87;;
29764;SDS011;16667;-33.884;151.182;2022-07-11T10:37:45;24.48;;;11.45;;
29764;SDS011;16667;-33.884;151.182;2022-07-11T10:43:15;25.52;;;12.82;;
29764;SDS011;16667;-33.884;151.182;2022-07-11T10:46:04;30.35;;;16.70;;
29764;SDS011;16667;-33.884;151.182;2022-07-11T10:48:55;33.42;;;15.43;;
29764;SDS011;16667;-33.884;151.182;2022-07-11T10:51:33;28.13;;;13.65;;
29764;SDS011;16667;-33.884;151.182;2022-07-11T10:54:11;27.63;;;13.00;;
29764;SDS011;16667;-33.884;151.182;2022-07-11T10:56:55;29.08;;;12.30;;
29764;SDS011;16667;-33.884;151.182;2022-07-11T10:59:33;26.90;;;11.25;;
29764;SDS011;16667;-33.884;151.182;2022-07-11T11:02:24;25.58;;;10.95;;
29764;SDS011;16667;-33.884;151.182;2022-07-11T11:04:58;24.65;;;10.95;;
29764;SDS011;16667;-33.884;151.182;2022-07-11T11:07:40;24.00;;;11.13;;
29764;SDS011;16667;-33.884;151.182;2022-07-11T11:13:15;24.15;;;12.77;;
29764;SDS011;16667;-33.884;151.182;2022-07-11T11:15:51;24.10;;;11.80;;
29764;SDS011;16667;-33.884;151.182;2022-07-11T11:18:35;22.40;;;11.63;;
29764;SDS011;16667;-33.884;151.182;2022-07-11T11:21:13;25.25;;;12.18;;
29764;SDS011;16667;-33.884;151.182;2022-07-11T11:24:05;24.60;;;11.43;;
29764;SDS011;16667;-33.884;151.182;2022-07-11T11:26:48;20.80;;;11.88;;
29764;SDS011;16667;-33.884;151.182;2022-07-11T11:29:20;25.45;;;11.88;;
29764;SDS011;16667;-33.884;151.182;2022-07-11T11:31:58;20.98;;;11.93;;
29764;SDS011;16667;-33.884;151.182;2022-07-11T11:34:29;26.70;;;11.87;;
29764;SDS011;16667;-33.884;151.182;2022-07-11T11:37:02;24.17;;;12.27;;
29764;SDS011;16667;-33.884;151.182;2022-07-11T11:39:36;26.00;;;12.60;;
29764;SDS011;16667;-33.884;151.182;2022-07-11T11:42:08;31.30;;;12.47;;
29764;SDS011;16667;-33.884;151.182;2022-07-11T11:44:47;25.15;;;11.98;;
29764;SDS011;16667;-33.884;151.182;2022-07-11T11:47:23;22.48;;;11.20;;
29764;SDS011;16667;-33.884;151.182;2022-07-11T11:49:54;23.83;;;11.80;;
29764;SDS011;16667;-33.884;151.182;2022-07-11T11:52:26;30.03;;;12.13;;
29764;SDS011;16667;-33.884;151.182;2022-07-11T11:54:59;23.47;;;11.20;;
29764;SDS011;16667;-33.884;151.182;2022-07-11T11:57:34;23.10;;;11.93;;
29764;SDS011;16667;-33.884;151.182;2022-07-11T12:00:13;25.13;;;12.75;;
29764;SDS011;16667;-33.884;151.182;2022-07-11T12:02:56;25.15;;;12.85;;
29764;SDS011;16667;-33.884;151.182;2022-07-11T12:05:28;24.15;;;12.95;;
29764;SDS011;16667;-33.884;151.182;2022-07-11T12:08:06;24.75;;;12.90;;
29764;SDS011;16667;-33.884;151.182;2022-07-11T12:10:38;27.23;;;13.80;;
29764;SDS011;16667;-33.884;151.182;2022-07-11T12:13:12;31.35;;;13.90;;
29764;SDS011;16667;-33.884;151.182;2022-07-11T12:15:50;26.42;;;12.75;;
29764;SDS011;16667;-33.884;151.182;2022-07-11T12:18:36;28.35;;;14.32;;
29764;SDS011;16667;-33.884;151.182;2022-07-11T12:21:10;27.58;;;13.40;;
29764;SDS011;16667;-33.884;151.182;2022-07-11T12:23:45;34.47;;;14.70;;
29764;SDS011;16667;-33.884;151.182;2022-07-11T12:26:18;29.73;;;14.32;;
29764;SDS011;16667;-33.884;151.182;2022-07-11T12:29:03;26.90;;;14.07;;
29764;SDS011;16667;-33.884;151.182;2022-07-11T12:31:44;31.33;;;14.77;;
29764;SDS011;16667;-33.884;151.182;2022-07-11T12:34:16;28.30;;;14.57;;
29764;SDS011;16667;-33.884;151.182;2022-07-11T12:36:47;25.33;;;14.25;;
29764;SDS011;16667;-33.884;151.182;2022-07-11T12:39:23;33.95;;;15.38;;
29764;SDS011;16667;-33.884;151.182;2022-07-11T12:42:00;32.20;;;15.98;;
29764;SDS011;16667;-33.884;151.182;2022-07-11T12:44:54;30.55;;;14.68;;
29764;SDS011;16667;-33.884;151.182;2022-07-11T12:47:35;29.37;;;14.57;;
29764;SDS011;16667;-33.884;151.182;2022-07-11T12:50:10;26.98;;;13.75;;
29764;SDS011;16667;-33.884;151.182;2022-07-11T12:52:42;27.60;;;14.40;;
29764;SDS011;16667;-33.884;151.182;2022-07-11T12:55:21;27.40;;;14.40;;
29764;SDS011;16667;-33.884;151.182;2022-07-11T12:58:10;32.13;;;15.35;;
29764;SDS011;16667;-33.884;151.182;2022-07-11T13:00:55;29.77;;;14.68;;
29764;SDS011;16667;-33.884;151.182;2022-07-11T13:03:29;31.52;;;14.73;;
29764;SDS011;16667;-33.884;151.182;2022-07-11T13:06:04;32.53;;;14.93;;
29764;SDS011;16667;-33.884;151.182;2022-07-11T13:08:35;35.80;;;15.33;;
29764;SDS011;16667;-33.884;151.182;2022-07-11T13:11:12;34.28;;;15.93;;
29764;SDS011;16667;-33.884;151.182;2022-07-11T13:13:46;36.72;;;14.93;;
29764;SDS011;16667;-33.884;151.182;2022-07-11T13:16:18;31.77;;;14.83;;
29764;SDS011;16667;-33.884;151.182;2022-07-11T13:18:49;30.25;;;14.30;;
29764;SDS011;16667;-33.884;151.182;2022-07-11T13:21:20;33.05;;;14.60;;
29764;SDS011;16667;-33.884;151.182;2022-07-11T13:23:53;30.30;;;15.00;;
29764;SDS011;16667;-33.884;151.182;2022-07-11T13:26:24;29.20;;;14.07;;
29764;SDS011;16667;-33.884;151.182;2022-07-11T13:28:57;28.45;;;14.75;;
29764;SDS011;16667;-33.884;151.182;2022-07-11T13:31:28;40.05;;;15.35;;
29764;SDS011;16667;-33.884;151.182;2022-07-11T13:33:58;29.98;;;15.07;;
29764;SDS011;16667;-33.884;151.182;2022-07-11T13:36:31;27.33;;;14.85;;
29764;SDS011;16667;-33.884;151.182;2022-07-11T13:39:02;28.38;;;14.10;;
29764;SDS011;16667;-33.884;151.182;2022-07-11T13:41:34;29.83;;;15.68;;
29764;SDS011;16667;-33.884;151.182;2022-07-11T13:44:07;31.40;;;15.65;;
29764;SDS011;16667;-33.884;151.182;2022-07-11T13:46:40;31.63;;;15.38;;
29764;SDS011;16667;-33.884;151.182;2022-07-11T13:49:11;34.47;;;15.55;;
29764;SDS011;16667;-33.884;151.182;2022-07-11T13:51:42;27.73;;;15.93;;
29764;SDS011;16667;-33.884;151.182;2022-07-11T13:54:13;32.92;;;16.52;;
29764;SDS011;16667;-33.884;151.182;2022-07-11T13:56:46;29.15;;;15.02;;
29764;SDS011;16667;-33.884;151.182;2022-07-11T13:59:19;31.52;;;15.30;;
29764;SDS011;16667;-33.884;151.182;2022-07-11T14:01:50;39.92;;;16.60;;
29764;SDS011;16667;-33.884;151.182;2022-07-11T14:04:21;32.55;;;15.30;;
29764;SDS011;16667;-33.884;151.182;2022-07-11T14:06:52;30.02;;;15.93;;
29764;SDS011;16667;-33.884;151.182;2022-07-11T14:09:22;41.03;;;17.60;;
29764;SDS011;16667;-33.884;151.182;2022-07-11T14:11:56;36.47;;;16.92;;
29764;SDS011;16667;-33.884;151.182;2022-07-11T14:14:32;34.92;;;17.05;;
29764;SDS011;16667;-33.884;151.182;2022-07-11T14:17:11;34.67;;;16.48;;
29764;SDS011;16667;-33.884;151.182;2022-07-11T14:19:42;39.42;;;17.52;;
29764;SDS011;16667;-33.884;151.182;2022-07-11T14:22:13;35.00;;;17.13;;
29764;SDS011;16667;-33.884;151.182;2022-07-11T14:24:43;36.92;;;16.48;;
29764;SDS011;16667;-33.884;151.182;2022-07-11T14:27:14;32.97;;;16.15;;
29764;SDS011;16667;-33.884;151.182;2022-07-11T14:29:47;28.42;;;15.55;;
29764;SDS011;16667;-33.884;151.182;2022-07-11T14:32:19;35.57;;;16.77;;
29764;SDS011;16667;-33.884;151.182;2022-07-11T14:34:51;35.57;;;16.60;;
29764;SDS011;16667;-33.884;151.182;2022-07-11T14:37:22;32.28;;;16.55;;
29764;SDS011;16667;-33.884;151.182;2022-07-11T14:39:53;35.65;;;16.92;;